Time;durP1;ratioP1;P1;durP2;ratioP2;P2;SDS_P1;SDS_P2;PMS_P1;PMS_P2;Temp;Humidity;BMP_temperature;BMP_pressure;BME280_temperature;BME280_humidity;BME280_pressure;Samples;Min_cycle;Max_cycle;Signal;HPM_P1;HPM_P2
2024/02/12 00:00:43;;;;;;;15.85;5.22;;;8.70;99.90;;;;;;5060096;28;20105;-79
2024/02/12 00:03:17;;;;;;;12.45;4.88;;;8.60;99.90;;;;;;5081171;28;20744;-82
2024/02/12 00:05:47;;;;;;;8.93;4.15;;;8.60;99.90;;;;;;5047231;28;20055;-80
2024/02/12 00:08:17;;;;;;;6.90;3.40;;;8.70;99.90;;;;;;5061215;28;20445;-82
2024/02/12 00:10:49;;;;;;;6.30;3.53;;;8.60;99.90;;;;;;5075979;28;20051;-81
2024/02/12 00:13:20;;;;;;;8.38;3.15;;;8.50;99.90;;;;;;5062015;28;20052;-79
2024/02/12 00:15:51;;;;;;;7.32;2.95;;;8.40;99.90;;;;;;5063540;28;20055;-82
2024/02/12 00:18:23;;;;;;;6.90;3.22;;;8.40;99.90;;;;;;5080824;28;20045;-80
2024/02/12 00:20:53;;;;;;;7.00;3.40;;;8.40;99.90;;;;;;5073195;28;20041;-80
2024/02/12 00:23:22;;;;;;;4.97;2.72;;;8.40;99.90;;;;;;5089347;28;20052;-82
2024/02/12 00:25:54;;;;;;;4.72;2.60;;;8.50;99.90;;;;;;5067907;28;20136;-80
2024/02/12 00:28:23;;;;;;;5.95;2.42;;;8.80;99.90;;;;;;5017373;28;20055;-79
2024/02/12 00:30:52;;;;;;;5.53;2.72;;;8.60;99.90;;;;;;5065913;28;20036;-79
2024/02/12 00:33:22;;;;;;;4.45;2.60;;;8.60;99.90;;;;;;5077840;28;20094;-79
2024/02/12 00:35:50;;;;;;;6.63;3.20;;;8.60;99.90;;;;;;5058085;28;20060;-79
2024/02/12 00:38:21;;;;;;;7.00;3.03;;;8.60;99.90;;;;;;5067572;28;20041;-80
2024/02/12 00:40:50;;;;;;;5.05;2.83;;;8.60;99.90;;;;;;5068157;28;20048;-79
2024/02/12 00:43:22;;;;;;;6.25;3.08;;;8.70;99.90;;;;;;5072853;28;20483;-78
2024/02/12 00:45:52;;;;;;;8.02;3.80;;;8.70;99.90;;;;;;5081536;28;20443;-81
2024/02/12 00:48:21;;;;;;;8.70;3.65;;;8.60;99.90;;;;;;5105047;27;20071;-79
2024/02/12 00:50:51;;;;;;;6.25;3.47;;;8.60;99.90;;;;;;5095890;28;20039;-78
2024/02/12 00:53:24;;;;;;;9.00;4.03;;;8.60;99.90;;;;;;5104834;28;20490;-81
2024/02/12 00:55:52;;;;;;;6.95;3.28;;;8.60;99.90;;;;;;5094579;28;20720;-80
2024/02/12 00:58:22;;;;;;;7.88;3.92;;;8.70;99.90;;;;;;5090162;28;20088;-78
2024/02/12 01:00:52;;;;;;;8.55;4.15;;;8.70;99.90;;;;;;5092345;28;20506;-81
2024/02/12 01:03:23;;;;;;;8.63;3.70;;;8.60;99.90;;;;;;5096501;28;20134;-79
2024/02/12 01:05:53;;;;;;;6.73;3.40;;;8.50;99.90;;;;;;5113028;28;20094;-80
2024/02/12 01:08:25;;;;;;;6.35;2.78;;;8.50;99.90;;;;;;5111357;28;20499;-82
2024/02/12 01:10:54;;;;;;;6.45;2.92;;;8.50;99.90;;;;;;5091938;28;20074;-77
2024/02/12 01:13:24;;;;;;;5.70;3.28;;;8.60;99.90;;;;;;5089101;28;20411;-80
2024/02/12 01:15:54;;;;;;;7.35;2.95;;;8.40;99.90;;;;;;5086668;28;20093;-79
2024/02/12 01:18:23;;;;;;;7.35;3.22;;;8.60;99.90;;;;;;5105837;28;20511;-80
2024/02/12 01:20:52;;;;;;;6.50;2.85;;;8.50;99.90;;;;;;5107364;28;20392;-79
2024/02/12 01:23:21;;;;;;;9.13;3.35;;;8.50;99.90;;;;;;5106055;27;20059;-84
2024/02/12 01:25:52;;;;;;;5.18;2.50;;;8.60;99.90;;;;;;5105057;27;20073;-78
2024/02/12 01:28:23;;;;;;;5.90;2.85;;;8.50;99.90;;;;;;5091011;28;20573;-79
2024/02/12 01:30:52;;;;;;;4.90;2.53;;;8.50;99.90;;;;;;5109013;27;20036;-80
2024/02/12 01:33:20;;;;;;;5.68;2.47;;;8.50;99.90;;;;;;5103097;27;20541;-78
2024/02/12 01:35:50;;;;;;;6.68;2.85;;;8.50;99.90;;;;;;5045577;28;20528;-78
2024/02/12 01:38:18;;;;;;;6.10;2.72;;;8.50;99.90;;;;;;5052126;28;20088;-78
2024/02/12 01:40:48;;;;;;;6.03;3.20;;;8.50;99.90;;;;;;5050755;28;20490;-79
2024/02/12 01:43:30;;;;;;;6.05;3.03;;;8.50;99.90;;;;;;5049103;28;20536;-81
2024/02/12 01:46:00;;;;;;;6.75;2.97;;;8.40;99.90;;;;;;5035076;28;20390;-77
2024/02/12 01:48:30;;;;;;;6.57;3.00;;;8.40;99.90;;;;;;5034286;28;20053;-79
2024/02/12 01:51:00;;;;;;;6.13;2.80;;;8.40;99.90;;;;;;5033983;28;20413;-78
2024/02/12 01:53:28;;;;;;;5.95;2.78;;;8.40;99.90;;;;;;5032624;28;20059;-78
2024/02/12 01:55:57;;;;;;;5.10;2.65;;;8.30;99.90;;;;;;5051943;28;20049;-78
2024/02/12 01:58:32;;;;;;;7.97;3.00;;;8.20;99.90;;;;;;5052615;28;20048;-81
2024/02/12 02:01:00;;;;;;;5.15;2.25;;;8.20;99.90;;;;;;5035428;28;20065;-82
2024/02/12 02:03:30;;;;;;;5.20;2.92;;;8.20;99.90;;;;;;5030702;28;20460;-81
2024/02/12 02:05:59;;;;;;;5.90;3.17;;;8.20;99.90;;;;;;5035984;28;20406;-84
2024/02/12 02:08:36;;;;;;;7.03;3.05;;;8.20;99.90;;;;;;5051626;28;20406;-80
2024/02/12 02:11:06;;;;;;;6.03;3.08;;;8.10;99.90;;;;;;5035695;28;20087;-84
2024/02/12 02:13:38;;;;;;;6.43;2.80;;;8.10;99.90;;;;;;5055003;28;20052;-84
2024/02/12 02:16:07;;;;;;;;;;;8.10;99.90;;;;;;5074101;28;20401;-83
2024/02/12 02:18:36;;;;;;;18.27;3.38;;;8.10;99.90;;;;;;5087923;28;19946;-82
2024/02/12 02:21:05;;;;;;;8.25;3.08;;;8.10;99.90;;;;;;5081616;28;20050;-85
2024/02/12 02:23:33;;;;;;;5.72;2.50;;;8.20;99.90;;;;;;5088108;28;20066;-84
2024/02/12 02:26:04;;;;;;;6.38;2.67;;;8.20;99.90;;;;;;5093011;28;20093;-84
2024/02/12 02:28:32;;;;;;;7.70;2.47;;;8.30;99.90;;;;;;5096768;28;20500;-84
2024/02/12 02:31:01;;;;;;;7.03;2.80;;;8.30;99.90;;;;;;5084655;28;20087;-83
2024/02/12 02:33:30;;;;;;;5.43;2.25;;;8.30;99.90;;;;;;5101691;28;20052;-83
2024/02/12 02:35:59;;;;;;;6.75;2.70;;;8.40;99.90;;;;;;5096898;28;20051;-84
2024/02/12 02:38:28;;;;;;;10.82;3.20;;;8.40;99.90;;;;;;5081679;28;20048;-83
2024/02/12 02:40:56;;;;;;;6.53;2.80;;;8.40;99.90;;;;;;5099166;28;20089;-84
2024/02/12 02:43:26;;;;;;;6.32;3.10;;;8.40;99.90;;;;;;5086202;28;20138;-81
2024/02/12 02:45:55;;;;;;;8.45;3.63;;;8.40;99.90;;;;;;5087980;28;20113;-79
2024/02/12 02:48:25;;;;;;;6.28;3.40;;;8.40;99.90;;;;;;5106451;28;20047;-83
2024/02/12 02:50:57;;;;;;;10.43;3.53;;;8.40;99.90;;;;;;5112744;28;20044;-81
2024/02/12 02:53:26;;;;;;;7.40;3.05;;;8.40;99.90;;;;;;5114298;27;20376;-85
2024/02/12 02:55:54;;;;;;;7.03;3.58;;;8.40;99.90;;;;;;5105902;28;20104;-80
2024/02/12 02:58:23;;;;;;;8.00;3.45;;;8.40;99.90;;;;;;5111707;28;20053;-81
2024/02/12 03:00:53;;;;;;;8.50;3.08;;;8.40;99.90;;;;;;5091296;28;20134;-78
2024/02/12 03:03:22;;;;;;;9.75;3.22;;;8.40;99.90;;;;;;5123186;27;20047;-81
2024/02/12 03:05:51;;;;;;;7.20;3.17;;;8.30;99.90;;;;;;5095309;28;20441;-80
2024/02/12 03:08:19;;;;;;;9.30;3.63;;;8.20;99.90;;;;;;5095644;28;20104;-82
2024/02/12 03:10:53;;;;;;;9.68;3.58;;;8.20;99.90;;;;;;5095495;28;20563;-80
2024/02/12 03:13:22;;;;;;;7.25;2.83;;;8.20;99.90;;;;;;5111931;28;20048;-80
2024/02/12 03:15:52;;;;;;;7.72;3.38;;;8.20;99.90;;;;;;5101364;28;20075;-79
2024/02/12 03:18:22;;;;;;;7.40;2.85;;;8.20;99.90;;;;;;5100781;28;20044;-80
2024/02/12 03:20:50;;;;;;;7.45;2.92;;;8.20;99.90;;;;;;5093937;28;20437;-81
2024/02/12 03:23:21;;;;;;;6.00;3.00;;;8.20;99.90;;;;;;5092048;28;20054;-83
2024/02/12 03:25:50;;;;;;;7.20;3.20;;;8.20;99.90;;;;;;5094372;28;20070;-80
2024/02/12 03:28:19;;;;;;;7.45;3.22;;;8.20;99.90;;;;;;5098441;28;20063;-81
2024/02/12 03:30:47;;;;;;;6.57;3.15;;;8.20;99.90;;;;;;5095407;28;20046;-82
2024/02/12 03:33:17;;;;;;;7.22;3.28;;;8.10;99.90;;;;;;5077434;28;20392;-81
2024/02/12 03:35:46;;;;;;;9.05;3.40;;;8.20;99.90;;;;;;5100737;28;20046;-80
2024/02/12 03:38:14;;;;;;;8.57;3.45;;;8.20;99.90;;;;;;5095491;28;20130;-78
2024/02/12 03:40:43;;;;;;;9.45;4.10;;;8.20;99.90;;;;;;5095082;28;20511;-79
2024/02/12 03:43:11;;;;;;;11.18;4.82;;;8.20;99.90;;;;;;5107867;28;20067;-79
2024/02/12 03:45:45;;;;;;;13.10;6.10;;;8.20;99.90;;;;;;5101549;28;20491;-82
2024/02/12 04:02:10;;;;;;;10.85;4.68;;;8.00;99.90;;;;;;5122359;27;20530;-81
2024/02/12 04:04:39;;;;;;;11.00;4.78;;;7.90;99.90;;;;;;5149195;27;20057;-79
2024/02/12 04:07:11;;;;;;;9.15;4.10;;;7.90;99.90;;;;;;5138740;27;20148;-82
2024/02/12 04:09:41;;;;;;;13.35;5.45;;;7.90;99.90;;;;;;5133347;27;20091;-81
2024/02/12 04:12:12;;;;;;;12.18;5.55;;;7.90;99.90;;;;;;5141384;27;20055;-79
2024/02/12 04:14:42;;;;;;;11.02;4.53;;;7.90;99.90;;;;;;5125314;27;20053;-78
2024/02/12 04:17:13;;;;;;;11.25;4.63;;;7.90;99.90;;;;;;5126343;27;20495;-78
2024/02/12 04:19:43;;;;;;;12.98;5.50;;;7.90;99.90;;;;;;5131240;28;20484;-79
2024/02/12 04:22:14;;;;;;;12.40;5.38;;;7.80;99.90;;;;;;5152237;27;20121;-80
2024/02/12 04:24:44;;;;;;;15.85;6.85;;;7.80;99.90;;;;;;5152389;27;20061;-78
2024/02/12 04:27:13;;;;;;;17.05;7.35;;;7.80;99.90;;;;;;5134914;27;20099;-81
2024/02/12 04:29:42;;;;;;;20.27;8.85;;;7.90;99.90;;;;;;5151015;27;20070;-78
2024/02/12 04:32:11;;;;;;;17.92;7.60;;;7.90;99.90;;;;;;5095002;28;20051;-80
2024/02/12 04:34:41;;;;;;;13.32;5.78;;;8.00;99.90;;;;;;5089585;28;20054;-80
2024/02/12 04:37:12;;;;;;;13.95;5.28;;;8.00;99.90;;;;;;5110192;28;20075;-78
2024/02/12 04:39:42;;;;;;;10.00;5.03;;;8.00;99.90;;;;;;5111731;28;20100;-80
2024/02/12 04:42:10;;;;;;;13.63;5.22;;;8.00;99.90;;;;;;5107412;28;20060;-79
2024/02/12 04:44:40;;;;;;;8.90;4.63;;;8.00;99.90;;;;;;5112976;28;20089;-79
2024/02/12 04:47:09;;;;;;;10.70;4.60;;;7.90;99.90;;;;;;5108677;28;20403;-78
2024/02/12 04:49:38;;;;;;;12.43;5.45;;;7.90;99.90;;;;;;5108373;28;20115;-78
2024/02/12 04:52:08;;;;;;;14.10;5.72;;;7.90;99.90;;;;;;5103516;28;20035;-79
2024/02/12 04:54:39;;;;;;;11.70;5.07;;;7.90;99.90;;;;;;5103003;28;20048;-78
2024/02/12 04:57:07;;;;;;;13.25;4.93;;;7.90;99.90;;;;;;5091350;28;20048;-79
2024/02/12 04:59:37;;;;;;;12.38;4.90;;;7.90;99.90;;;;;;5116976;28;20039;-78
2024/02/12 05:02:06;;;;;;;14.60;5.80;;;7.90;99.90;;;;;;5112835;28;20040;-80
2024/02/12 05:04:36;;;;;;;12.18;4.70;;;7.90;99.90;;;;;;5102097;28;20491;-78
2024/02/12 05:07:06;;;;;;;13.05;5.32;;;8.00;99.90;;;;;;5094603;28;20543;-80
2024/02/12 05:09:36;;;;;;;13.00;5.10;;;7.80;99.90;;;;;;5116996;27;20043;-79
2024/02/12 05:12:10;;;;;;;10.70;4.57;;;7.80;99.90;;;;;;5094883;28;20437;-79
2024/02/12 05:14:39;;;;;;;10.02;4.13;;;7.90;99.90;;;;;;5072554;28;20044;-79
2024/02/12 05:17:11;;;;;;;12.25;4.60;;;7.90;99.90;;;;;;5055347;28;20416;-80
2024/02/12 05:22:35;;;;;;;10.13;4.53;;;8.00;99.90;;;;;;5056806;28;20036;-77
2024/02/12 05:25:07;;;;;;;9.50;4.57;;;8.00;99.90;;;;;;5071929;28;20072;-78
2024/02/12 05:27:40;;;;;;;11.25;4.88;;;8.00;99.90;;;;;;5073233;28;20420;-79
2024/02/12 05:30:08;;;;;;;12.07;5.30;;;8.00;99.90;;;;;;5056183;28;20053;-78
2024/02/12 05:32:38;;;;;;;11.88;4.38;;;8.00;99.90;;;;;;5072730;28;20084;-79
2024/02/12 05:35:09;;;;;;;10.00;4.25;;;8.10;99.90;;;;;;5055764;28;20048;-79
2024/02/12 05:37:39;;;;;;;10.75;5.57;;;8.10;99.90;;;;;;5055489;28;20098;-78
2024/02/12 05:40:09;;;;;;;12.25;5.50;;;8.10;99.90;;;;;;5054408;28;20579;-79
2024/02/12 05:42:39;;;;;;;14.88;6.70;;;8.10;99.90;;;;;;5069148;28;20082;-77
2024/02/12 05:45:11;;;;;;;21.25;7.05;;;8.00;99.90;;;;;;5060375;28;20043;-78
2024/02/12 05:47:41;;;;;;;16.13;7.22;;;8.00;99.90;;;;;;5113624;28;20059;-77
2024/02/12 05:50:11;;;;;;;21.95;9.13;;;8.00;99.90;;;;;;5094958;28;20047;-80
2024/02/12 05:52:43;;;;;;;28.83;11.98;;;8.00;99.90;;;;;;5094517;28;20093;-79
2024/02/12 05:55:12;;;;;;;29.77;12.60;;;8.10;99.90;;;;;;5108535;28;20503;-78
2024/02/12 05:57:42;;;;;;;26.75;11.20;;;8.00;99.90;;;;;;5096785;28;20088;-77
2024/02/12 06:00:12;;;;;;;21.00;10.45;;;8.10;99.90;;;;;;5103735;28;20052;-78
2024/02/12 06:02:44;;;;;;;17.13;7.85;;;8.00;99.90;;;;;;5105268;28;20043;-77
2024/02/12 06:05:15;;;;;;;14.02;6.18;;;8.00;99.90;;;;;;5097180;27;20054;-79
2024/02/12 06:07:44;;;;;;;12.38;5.40;;;8.00;99.90;;;;;;5106892;28;20043;-77
2024/02/12 06:10:18;;;;;;;15.77;6.82;;;8.00;99.90;;;;;;5096376;28;20051;-76
2024/02/12 06:12:48;;;;;;;12.43;5.75;;;8.00;99.90;;;;;;5114238;28;20044;-76
2024/02/12 06:15:16;;;;;;;13.02;6.40;;;8.00;99.90;;;;;;5114025;28;20043;-77
2024/02/12 06:17:45;;;;;;;15.50;6.10;;;8.00;99.90;;;;;;5106882;28;20395;-76
2024/02/12 06:20:14;;;;;;;14.07;6.63;;;8.00;99.90;;;;;;5098706;28;20385;-77
2024/02/12 06:22:43;;;;;;;15.02;6.05;;;8.00;99.90;;;;;;5113993;28;20104;-76
2024/02/12 06:25:13;;;;;;;15.02;6.47;;;8.00;99.90;;;;;;5097259;28;20051;-77
2024/02/12 06:27:44;;;;;;;12.68;5.18;;;8.00;99.90;;;;;;5090616;28;20055;-79
2024/02/12 06:30:15;;;;;;;12.10;5.38;;;8.00;99.90;;;;;;5086132;28;20527;-78
2024/02/12 06:32:43;;;;;;;11.77;4.95;;;8.00;99.90;;;;;;5118013;27;20040;-78
2024/02/12 06:35:12;;;;;;;13.57;5.45;;;8.10;99.90;;;;;;5096553;28;20468;-77
2024/02/12 06:37:46;;;;;;;13.55;6.22;;;8.00;99.90;;;;;;5113351;28;20063;-78
2024/02/12 06:40:15;;;;;;;10.82;4.35;;;8.00;99.90;;;;;;5096844;28;20415;-80
2024/02/12 06:42:43;;;;;;;14.82;6.35;;;8.00;99.90;;;;;;5094341;28;20076;-79
2024/02/12 06:45:13;;;;;;;15.45;5.47;;;7.90;99.90;;;;;;5037147;28;20051;-78
2024/02/12 06:47:42;;;;;;;15.50;7.40;;;7.90;99.90;;;;;;5091327;28;20529;-77
2024/02/12 06:50:12;;;;;;;19.00;8.85;;;8.00;99.90;;;;;;5094622;28;20052;-79
2024/02/12 06:52:41;;;;;;;18.83;8.55;;;7.90;99.90;;;;;;5093080;28;20043;-78
2024/02/12 06:55:10;;;;;;;15.73;6.70;;;7.90;99.90;;;;;;5094873;28;20121;-77
2024/02/12 06:57:38;;;;;;;15.95;7.60;;;8.00;99.90;;;;;;5094245;28;20048;-78
2024/02/12 07:00:08;;;;;;;18.10;7.50;;;8.00;99.90;;;;;;5091170;28;20044;-79
2024/02/12 07:02:38;;;;;;;17.55;7.22;;;8.00;99.90;;;;;;5105015;28;20044;-79
2024/02/12 07:05:12;;;;;;;17.40;7.40;;;8.10;99.90;;;;;;5092968;28;20032;-80
2024/02/12 07:07:42;;;;;;;17.33;8.18;;;8.10;99.90;;;;;;5091427;28;20071;-78
2024/02/12 07:10:10;;;;;;;20.60;9.02;;;8.10;99.90;;;;;;5093791;28;20040;-81
2024/02/12 07:12:39;;;;;;;21.42;9.80;;;8.10;99.90;;;;;;5089187;28;20055;-77
2024/02/12 07:15:10;;;;;;;21.58;10.30;;;8.20;99.90;;;;;;5102237;28;20130;-77
2024/02/12 07:17:43;;;;;;;16.38;7.45;;;8.20;99.90;;;;;;5089719;28;20043;-79
2024/02/12 07:20:12;;;;;;;16.65;7.72;;;7.50;99.90;;;;;;5090751;28;20044;-81
2024/02/12 07:22:41;;;;;;;14.70;6.60;;;8.20;99.90;;;;;;5088705;28;20045;-80
2024/02/12 07:25:10;;;;;;;12.93;5.95;;;8.20;99.90;;;;;;5086212;28;20464;-78
2024/02/12 07:27:39;;;;;;;14.10;6.28;;;8.20;99.90;;;;;;5084368;28;20045;-80
2024/02/12 07:30:09;;;;;;;13.25;6.63;;;8.20;99.90;;;;;;5103298;27;20040;-78
2024/02/12 07:32:41;;;;;;;15.68;6.82;;;8.20;99.90;;;;;;5089770;28;20052;-79
2024/02/12 07:35:09;;;;;;;15.93;7.00;;;8.30;99.90;;;;;;5087852;28;20049;-79
2024/02/12 07:37:38;;;;;;;16.38;6.88;;;8.30;99.90;;;;;;5088168;28;20139;-77
2024/02/12 07:40:11;;;;;;;14.40;7.43;;;8.30;99.90;;;;;;5087811;28;20055;-79
2024/02/12 07:42:40;;;;;;;16.35;7.30;;;8.30;99.90;;;;;;5088006;28;20071;-78
2024/02/12 07:45:13;;;;;;;16.23;7.55;;;8.30;99.90;;;;;;5084092;28;20063;-81
2024/02/12 07:47:44;;;;;;;17.75;7.05;;;8.30;99.90;;;;;;5094518;28;20096;-77
2024/02/12 07:50:13;;;;;;;17.10;7.55;;;8.30;99.90;;;;;;5080190;28;20071;-79
2024/02/12 07:52:43;;;;;;;16.52;7.43;;;8.30;99.90;;;;;;5084790;28;20044;-78
2024/02/12 07:55:13;;;;;;;14.52;7.35;;;8.30;99.90;;;;;;5083488;28;20497;-81
2024/02/12 07:57:45;;;;;;;14.23;7.13;;;8.30;99.90;;;;;;5094968;28;20153;-79
2024/02/12 08:00:15;;;;;;;16.15;7.15;;;8.40;99.90;;;;;;5082433;28;20149;-79
2024/02/12 08:02:49;;;;;;;15.88;7.32;;;8.30;99.90;;;;;;5103107;28;20490;-79
2024/02/12 08:05:17;;;;;;;15.50;6.90;;;8.30;99.90;;;;;;5082676;28;20048;-76
2024/02/12 08:07:47;;;;;;;13.05;6.95;;;8.30;99.90;;;;;;5103613;28;20047;-78
2024/02/12 08:10:30;;;;;;;14.40;7.38;;;8.30;99.90;;;;;;5103050;28;20048;-78
2024/02/12 08:12:59;;;;;;;15.60;6.57;;;8.40;99.90;;;;;;5089362;28;20411;-79
2024/02/12 08:15:28;;;;;;;14.75;6.85;;;8.40;99.90;;;;;;5086959;28;20052;-78
2024/02/12 08:17:58;;;;;;;15.20;6.25;;;8.40;99.90;;;;;;5096910;28;20048;-79
2024/02/12 08:20:27;;;;;;;13.52;6.55;;;8.40;99.90;;;;;;5082259;28;20407;-79
2024/02/12 08:22:56;;;;;;;12.98;6.38;;;8.40;99.90;;;;;;5084703;28;20119;-78
2024/02/12 08:25:26;;;;;;;14.40;6.97;;;8.40;99.90;;;;;;5084248;28;20408;-80
2024/02/12 08:27:56;;;;;;;14.68;6.38;;;8.40;99.90;;;;;;5079209;28;20455;-78
2024/02/12 08:30:25;;;;;;;13.05;6.10;;;8.50;99.90;;;;;;5086198;28;20048;-79
2024/02/12 08:32:55;;;;;;;15.75;6.18;;;8.50;99.90;;;;;;5088114;28;20047;-79
2024/02/12 08:35:25;;;;;;;15.98;6.03;;;8.50;99.90;;;;;;5085169;28;20036;-78
2024/02/12 08:37:55;;;;;;;12.43;6.07;;;8.60;99.90;;;;;;5088087;28;20064;-76
2024/02/12 08:40:26;;;;;;;12.32;5.75;;;8.50;99.90;;;;;;5088176;28;20503;-76
2024/02/12 08:42:56;;;;;;;12.18;6.72;;;8.50;99.90;;;;;;5084972;28;20037;-78
2024/02/12 08:45:28;;;;;;;11.80;6.00;;;8.60;99.90;;;;;;5084659;28;20386;-77
2024/02/12 08:47:57;;;;;;;10.55;6.22;;;8.60;99.90;;;;;;5085978;28;20080;-78
2024/02/12 08:50:28;;;;;;;11.50;6.03;;;8.60;99.90;;;;;;5086546;28;20059;-79
2024/02/12 08:52:57;;;;;;;13.30;6.10;;;8.60;99.90;;;;;;5087856;28;20127;-78
2024/02/12 08:55:26;;;;;;;11.45;5.30;;;8.60;99.90;;;;;;5086800;28;20450;-80
2024/02/12 08:57:55;;;;;;;10.45;5.30;;;8.60;99.90;;;;;;5086733;28;20040;-77
2024/02/12 09:00:24;;;;;;;9.88;4.95;;;8.60;99.90;;;;;;5082476;28;20053;-80
2024/02/12 09:02:53;;;;;;;10.85;4.57;;;8.70;99.90;;;;;;5086027;28;20051;-79
2024/02/12 09:05:21;;;;;;;18.25;10.20;;;8.70;99.90;;;;;;5106715;28;20052;-79
2024/02/12 09:07:54;;;;;;;232.38;91.90;;;8.70;99.90;;;;;;5092538;28;20063;-79
2024/02/12 09:10:23;;;;;;;84.13;37.08;;;8.80;99.90;;;;;;5088281;28;20063;-78
2024/02/12 09:12:51;;;;;;;109.03;49.28;;;8.80;99.90;;;;;;5089184;28;20541;-81
2024/02/12 09:15:21;;;;;;;348.50;138.25;;;8.80;99.90;;;;;;5092100;28;20119;-79
2024/02/12 09:17:51;;;;;;;70.57;33.13;;;8.90;99.90;;;;;;5088888;28;20036;-80
2024/02/12 09:20:21;;;;;;;48.10;22.83;;;8.90;99.90;;;;;;5102439;28;20101;-80
2024/02/12 09:22:49;;;;;;;20.42;9.77;;;8.90;99.90;;;;;;5085362;28;20512;-82
2024/02/12 09:25:19;;;;;;;15.95;7.22;;;8.90;99.90;;;;;;5089321;28;20039;-82
2024/02/12 09:27:51;;;;;;;17.42;8.02;;;9.00;99.90;;;;;;5097860;27;20078;-83
2024/02/12 09:30:20;;;;;;;8.73;4.82;;;9.00;99.90;;;;;;5084879;28;20051;-80
2024/02/12 09:32:49;;;;;;;11.32;6.90;;;9.00;99.90;;;;;;5086838;28;20446;-82
2024/02/12 09:35:18;;;;;;;17.15;8.50;;;9.00;99.90;;;;;;5101313;27;20089;-82
2024/02/12 09:37:51;;;;;;;23.05;13.27;;;9.10;99.90;;;;;;5098477;27;20045;-83
2024/02/12 09:40:23;;;;;;;11.85;6.15;;;9.10;99.90;;;;;;5085131;28;20048;-81
2024/02/12 09:42:56;;;;;;;12.48;7.75;;;9.10;99.90;;;;;;5090243;28;20040;-84
2024/02/12 09:45:28;;;;;;;8.25;4.20;;;9.10;99.90;;;;;;5099272;28;20435;-79
2024/02/12 09:47:58;;;;;;;9.95;5.07;;;9.10;99.90;;;;;;5060895;28;20567;-83
2024/02/12 09:50:28;;;;;;;7.55;4.60;;;9.10;99.90;;;;;;5070898;28;20037;-84
2024/02/12 09:52:58;;;;;;;8.07;4.70;;;9.00;99.90;;;;;;5068113;28;20056;-80
2024/02/12 09:55:29;;;;;;;8.20;4.18;;;9.10;99.90;;;;;;5065109;28;20052;-87
2024/02/12 09:57:59;;;;;;;10.02;4.32;;;9.10;99.90;;;;;;5081591;28;20045;-85
2024/02/12 10:00:27;;;;;;;7.45;3.80;;;9.10;99.90;;;;;;5079792;28;20056;-84
2024/02/12 10:02:56;;;;;;;7.13;3.78;;;9.20;99.90;;;;;;5066405;28;20036;-82
2024/02/12 10:05:26;;;;;;;49.05;28.10;;;9.20;99.90;;;;;;5070871;28;20044;-85
2024/02/12 10:07:55;;;;;;;15.35;11.55;;;9.20;99.90;;;;;;5065124;28;20040;-86
2024/02/12 10:10:24;;;;;;;13.40;7.30;;;9.30;99.90;;;;;;5083163;28;20087;-84
2024/02/12 10:12:55;;;;;;;7.30;5.00;;;9.30;99.90;;;;;;5062743;28;20578;-83
2024/02/12 10:15:28;;;;;;;10.32;8.45;;;9.30;99.90;;;;;;5063000;28;20052;-84
2024/02/12 10:17:56;;;;;;;7.78;5.20;;;9.40;99.90;;;;;;5066659;28;20102;-83
2024/02/12 10:20:25;;;;;;;8.07;4.90;;;9.50;99.90;;;;;;5067967;28;20376;-84
2024/02/12 10:22:55;;;;;;;8.25;5.70;;;9.50;99.90;;;;;;5064685;28;20496;-86
2024/02/12 10:25:25;;;;;;;19.65;11.82;;;9.50;99.90;;;;;;5065082;28;20040;-84
2024/02/12 10:27:55;;;;;;;8.48;4.40;;;9.50;99.90;;;;;;5068113;28;20040;-85
2024/02/12 10:30:24;;;;;;;13.55;7.80;;;9.60;99.90;;;;;;5082282;28;20052;-85
2024/02/12 10:32:53;;;;;;;8.07;4.60;;;9.70;99.90;;;;;;5068708;28;20634;-80
2024/02/12 10:35:24;;;;;;;16.13;9.38;;;9.80;99.90;;;;;;5062027;28;20404;-84
2024/02/12 10:37:53;;;;;;;9.13;5.13;;;9.70;99.90;;;;;;5083258;28;20126;-82
2024/02/12 10:40:31;;;;;;;6.05;4.22;;;9.80;99.90;;;;;;5069278;28;20116;-85
2024/02/12 10:43:05;;;;;;;8.35;4.03;;;9.70;99.90;;;;;;5068537;28;20051;-86
2024/02/12 10:45:34;;;;;;;69.63;36.80;;;9.90;99.90;;;;;;5066358;28;20036;-84
2024/02/12 10:48:07;;;;;;;13.68;7.95;;;9.90;99.90;;;;;;5090188;28;20217;-83
2024/02/12 10:50:38;;;;;;;159.20;72.07;;;9.90;99.90;;;;;;5079366;28;20451;-83
2024/02/12 10:53:09;;;;;;;101.80;55.08;;;10.00;99.90;;;;;;5081355;28;20059;-82
2024/02/12 10:55:39;;;;;;;151.55;78.07;;;10.10;99.90;;;;;;5099492;28;20045;-83
2024/02/12 10:58:13;;;;;;;82.65;38.83;;;10.10;99.90;;;;;;5082937;28;20044;-84
2024/02/12 11:00:41;;;;;;;95.45;34.90;;;10.10;99.90;;;;;;5086703;28;20039;-82
2024/02/12 11:03:32;;;;;;;96.68;39.78;;;10.10;99.90;;;;;;5083961;28;20071;-83
2024/02/12 11:06:02;;;;;;;226.02;92.53;;;10.30;99.90;;;;;;5081300;28;20044;-81
2024/02/12 11:08:37;;;;;;;14.45;9.43;;;10.30;99.90;;;;;;5100043;28;20131;-84
2024/02/12 11:11:14;;;;;;;7.13;4.63;;;10.30;99.90;;;;;;5080181;28;20036;-84
2024/02/12 11:13:44;;;;;;;8.50;3.63;;;10.30;99.90;;;;;;5081888;28;20098;-85
2024/02/12 11:16:15;;;;;;;13.35;4.90;;;10.30;99.90;;;;;;5086491;28;20052;-84
2024/02/12 11:18:47;;;;;;;5.05;3.15;;;10.30;99.90;;;;;;5084115;28;20050;-90
2024/02/12 11:21:22;;;;;;;6.10;3.22;;;10.30;99.90;;;;;;5083418;28;20306;-85
2024/02/12 11:24:02;;;;;;;4.32;3.00;;;10.40;99.90;;;;;;5085374;28;20048;-86
2024/02/12 11:26:34;;;;;;;6.53;3.22;;;10.40;99.90;;;;;;5082399;28;20416;-87
2024/02/12 11:29:06;;;;;;;4.20;2.83;;;10.50;99.90;;;;;;5083770;28;20036;-86
2024/02/12 11:31:37;;;;;;;4.90;2.63;;;10.40;99.90;;;;;;5100239;28;20055;-85
2024/02/12 11:34:13;;;;;;;6.07;3.47;;;10.40;99.90;;;;;;5105709;28;20097;-84
2024/02/12 11:36:41;;;;;;;;;;;10.40;99.90;;;;;;5101367;28;20044;-85
2024/02/12 11:39:10;;;;;;;6.10;2.70;;;10.40;99.90;;;;;;5100866;28;19920;-84
2024/02/12 11:41:39;;;;;;;7.03;3.05;;;10.50;99.90;;;;;;5076469;28;20083;-84
2024/02/12 11:44:09;;;;;;;9.32;2.95;;;10.50;99.90;;;;;;5084312;28;20477;-85
2024/02/12 11:46:39;;;;;;;6.05;2.78;;;10.50;99.90;;;;;;5098720;28;20047;-85
2024/02/12 11:49:09;;;;;;;5.03;2.80;;;10.50;99.90;;;;;;5104921;28;20391;-85
2024/02/12 11:51:39;;;;;;;53.42;19.63;;;10.50;99.90;;;;;;5100304;28;20385;-84
2024/02/12 11:54:11;;;;;;;28.63;11.60;;;10.50;99.90;;;;;;5103380;28;20048;-85
2024/02/12 11:56:41;;;;;;;17.80;8.00;;;10.50;99.90;;;;;;5086868;28;20054;-85
2024/02/12 11:59:13;;;;;;;20.75;7.95;;;10.50;99.90;;;;;;5105102;28;20052;-84
2024/02/12 12:01:42;;;;;;;5.95;3.05;;;10.50;99.90;;;;;;5086298;28;20048;-85
2024/02/12 12:04:11;;;;;;;8.00;3.20;;;10.40;99.90;;;;;;5110108;28;20142;-81
2024/02/12 12:06:41;;;;;;;8.02;3.88;;;10.40;99.90;;;;;;5088718;28;20036;-84
2024/02/12 12:09:11;;;;;;;6.70;2.95;;;10.40;99.90;;;;;;5094140;27;20078;-83
2024/02/12 12:11:41;;;;;;;5.22;3.00;;;10.40;99.90;;;;;;5086441;27;20047;-82
2024/02/12 12:14:12;;;;;;;5.07;3.00;;;10.40;99.90;;;;;;5090176;27;20054;-84
2024/02/12 12:16:42;;;;;;;5.03;3.05;;;10.40;99.90;;;;;;5108268;27;20100;-86
2024/02/12 12:19:30;;;;;;;7.15;3.55;;;10.40;99.90;;;;;;5110719;28;20036;-85
2024/02/12 12:21:59;;;;;;;5.70;3.20;;;10.40;99.90;;;;;;5092625;28;20499;-82
2024/02/12 12:24:30;;;;;;;6.63;2.90;;;10.40;99.90;;;;;;5088963;28;20053;-84
2024/02/12 12:26:59;;;;;;;6.13;3.38;;;10.40;99.90;;;;;;5107055;28;20411;-86
2024/02/12 12:29:29;;;;;;;6.18;3.30;;;10.40;99.90;;;;;;5102006;28;20040;-84
2024/02/12 12:31:59;;;;;;;4.70;3.00;;;10.30;99.90;;;;;;5091640;28;20040;-86
2024/02/12 12:34:29;;;;;;;7.43;3.20;;;10.30;99.90;;;;;;5090144;28;20165;-86
2024/02/12 12:36:59;;;;;;;6.97;3.22;;;10.30;99.90;;;;;;5088548;28;20396;-84
2024/02/12 12:39:27;;;;;;;5.50;2.90;;;10.20;99.90;;;;;;5082000;28;20056;-85
2024/02/12 12:41:56;;;;;;;7.10;3.47;;;10.20;99.90;;;;;;5106875;28;20395;-86
2024/02/12 12:44:26;;;;;;;5.15;2.95;;;10.10;99.90;;;;;;5104646;28;20534;-85
2024/02/12 12:46:56;;;;;;;5.43;2.95;;;10.10;99.90;;;;;;5087634;27;20050;-86
2024/02/12 12:49:25;;;;;;;6.38;3.70;;;10.10;99.90;;;;;;5090938;27;20086;-85
2024/02/12 12:51:54;;;;;;;7.03;3.72;;;10.10;99.90;;;;;;5060920;28;20386;-85
2024/02/12 12:54:23;;;;;;;9.27;3.70;;;10.10;99.90;;;;;;5043884;28;20072;-86
2024/02/12 12:56:51;;;;;;;11.65;4.28;;;10.10;99.90;;;;;;5048686;28;20540;-85
2024/02/12 12:59:20;;;;;;;7.75;3.85;;;10.10;99.90;;;;;;5047145;28;20037;-85
2024/02/12 13:01:48;;;;;;;6.57;3.72;;;10.10;99.90;;;;;;5047996;28;20052;-86
2024/02/12 13:04:18;;;;;;;8.63;3.65;;;10.10;99.90;;;;;;5060264;28;20055;-86
2024/02/12 13:06:47;;;;;;;4.75;3.03;;;10.00;99.90;;;;;;5063725;28;20040;-85
2024/02/12 13:09:18;;;;;;;6.22;3.28;;;10.00;99.90;;;;;;5061675;28;20044;-84
2024/02/12 13:11:49;;;;;;;5.10;3.28;;;10.00;99.90;;;;;;5060112;28;20087;-88
2024/02/12 13:14:20;;;;;;;8.02;4.00;;;10.00;99.90;;;;;;5063077;28;20052;-86
2024/02/12 13:16:50;;;;;;;7.85;3.28;;;10.00;99.90;;;;;;5047801;28;20068;-86
2024/02/12 13:19:20;;;;;;;5.25;3.00;;;10.00;99.90;;;;;;5047336;28;20057;-86
2024/02/12 13:21:49;;;;;;;9.48;3.75;;;9.90;99.90;;;;;;5068494;28;20467;-87